»·PEaware :: N123SX KLAX-KLAS

N123SX :: KLAX-KLAS

FLIGHT INFORMATION

Flight Status: Arrived
Operator: Privately registered:
United States
More flights under this callsign
Pilot: Shawn G. (7208)
Aircraft: ECLIPSE 500
(EA50)
More flights by this aircraft type
Origin: KLAX Los Angeles Intl
United States
Destination: KLAS McCarran Intl
United States
More flights between these airports :: More routes between these airports
Route: +ORCKA1 MISEN KEPEC4
File this flight plan on PilotEdge
Remarks:
Altitude:
(Current/Filed)
25,000ft
Speed:
(Current/Filed)
340kts
Departed: 12-Aug-17 08:22 PM
Arrived: 12-Aug-17 09:11 PM
Distance/Time
Traveled:
205nm/0:49
Distance/Time
To Go:
Arrived

Flight Plot

Page will automatically refresh every two minutes.

Flight plan parsing failed; only flown route is shown


Map Options




Map Legend


Flown Route
Filed Route
Departure Airport
Arrival Airport
Navaid (VOR, NDB)
Fix

Horizontal Profiles

Position Reports

Time Latitude Longitude Heading Altitude Ground
Speed
12-Aug-17 20:09 33.932904 -118.399821 78 106ft 0kts
12-Aug-17 20:10 33.932904 -118.399821 78 106ft 0kts
12-Aug-17 20:11 33.932904 -118.399821 78 106ft 0kts
12-Aug-17 20:12 33.932904 -118.399821 78 106ft 0kts
12-Aug-17 20:13 33.932904 -118.399821 78 106ft 0kts
12-Aug-17 20:14 33.932904 -118.399821 78 106ft 0kts
12-Aug-17 20:15 33.932904 -118.399821 78 106ft 0kts
12-Aug-17 20:16 33.932904 -118.399821 78 106ft 0kts
12-Aug-17 20:17 33.932904 -118.399821 78 106ft 0kts
12-Aug-17 20:18 33.932941 -118.399785 25 106ft 3kts
12-Aug-17 20:19 33.933588 -118.399437 26 106ft 4kts
12-Aug-17 20:20 33.934632 -118.397426 81 106ft 11kts
12-Aug-17 20:21 33.935061 -118.393219 82 106ft 10kts
12-Aug-17 20:22 33.935609 -118.387831 85 106ft 20kts
12-Aug-17 20:23 33.936233 -118.382946 49 106ft 0kts
12-Aug-17 20:24 33.937326 -118.383080 272 106ft 7kts
12-Aug-17 20:25 33.935442 -118.404695 263 431ft 143kts
12-Aug-17 20:26 33.925921 -118.455762 248 3253ft 163kts
12-Aug-17 20:27 33.907546 -118.508173 231 5944ft 179kts
12-Aug-17 20:28 33.882028 -118.482692 56 8629ft 192kts
12-Aug-17 20:29 33.923935 -118.442912 31 10979ft 197kts
12-Aug-17 20:30 33.963380 -118.398631 62 13087ft 208kts
12-Aug-17 20:31 33.992040 -118.335903 60 14947ft 231kts
12-Aug-17 20:32 34.033125 -118.257186 55 14984ft 320kts
12-Aug-17 20:33 34.082254 -118.169495 55 14976ft 361kts
12-Aug-17 20:34 34.133002 -118.079347 55 16652ft 307kts
12-Aug-17 20:35 34.177435 -118.000369 54 19596ft 263kts
12-Aug-17 20:36 34.216880 -117.930222 54 21531ft 253kts
12-Aug-17 20:37 34.256869 -117.859004 54 22961ft 260kts
12-Aug-17 20:38 34.297875 -117.785801 54 24210ft 268kts
12-Aug-17 20:39 34.340636 -117.709335 54 24972ft 293kts
12-Aug-17 20:40 34.391517 -117.623293 52 25003ft 333kts
12-Aug-17 20:41 34.447732 -117.528963 52 25014ft 358kts
12-Aug-17 20:42 34.507073 -117.429183 52 25014ft 373kts
12-Aug-17 20:43 34.568078 -117.326355 53 25008ft 382kts
12-Aug-17 20:44 34.629827 -117.221942 53 25007ft 381kts
12-Aug-17 20:45 34.691391 -117.117555 53 25008ft 381kts
12-Aug-17 20:46 34.752661 -117.013463 53 24944ft 379kts
12-Aug-17 20:47 34.813508 -116.909705 53 24885ft 377kts
12-Aug-17 20:48 34.874234 -116.805773 53 24874ft 377kts
12-Aug-17 20:49 34.934625 -116.701213 54 24875ft 382kts
12-Aug-17 20:50 34.995202 -116.594115 54 24750ft 386kts
12-Aug-17 20:51 35.056671 -116.485035 55 24266ft 393kts
12-Aug-17 20:52 35.121923 -116.380392 44 23911ft 390kts
12-Aug-17 20:53 35.195754 -116.287018 44 23835ft 392kts
12-Aug-17 20:54 35.272239 -116.190901 45 22454ft 394kts
12-Aug-17 20:55 35.347228 -116.096469 45 20638ft 382kts
12-Aug-17 20:56 35.419416 -116.005251 46 18837ft 369kts
12-Aug-17 20:57 35.489504 -115.916480 46 17034ft 357kts
12-Aug-17 20:58 35.557048 -115.830715 46 15240ft 345kts
12-Aug-17 20:59 35.622442 -115.747468 46 13446ft 334kts
12-Aug-17 21:00 35.685823 -115.666569 46 13028ft 331kts
12-Aug-17 21:01 35.751504 -115.588191 24 13013ft 331kts
12-Aug-17 21:02 35.841608 -115.572913 2 13029ft 329kts
12-Aug-17 21:03 35.932537 -115.565843 5 13005ft 329kts
12-Aug-17 21:04 35.990341 -115.486083 65 11936ft 322kts
12-Aug-17 21:05 36.024691 -115.390200 71 10972ft 275kts
12-Aug-17 21:06 36.023792 -115.295337 97 9607ft 279kts
12-Aug-17 21:07 36.017824 -115.199873 97 9003ft 280kts
12-Aug-17 21:08 36.012547 -115.104849 83 7991ft 249kts
12-Aug-17 21:09 36.066706 -115.059281 21 6558ft 240kts
12-Aug-17 21:10 36.127695 -115.033215 1 5060ft 221kts
12-Aug-17 21:11 36.158162 -115.080964 288 4808ft 185kts
12-Aug-17 21:12 36.147565 -115.129858 202 4193ft 146kts
12-Aug-17 21:13 36.114783 -115.147722 202 2683ft 115kts
12-Aug-17 21:14 36.090106 -115.161889 205 2114ft 35kts
12-Aug-17 21:15 36.089543 -115.163931 295 2114ft 10kts
12-Aug-17 21:16 36.093086 -115.162583 20 2114ft 25kts
12-Aug-17 21:17 36.099036 -115.160017 358 2114ft 11kts
12-Aug-17 21:18 36.099906 -115.160142 34 2114ft 0kts
12-Aug-17 21:19 36.099906 -115.160142 34 2114ft 0kts

Navigation Log

Ident Type
Flight plan parsing failed, navigation log unavailable